createdAt,value
2022-08-17T00:02:26.152Z,47.64
2022-08-17T00:04:54.755Z,47.17
2022-08-17T00:07:21.762Z,47.44
2022-08-17T00:09:48.662Z,49.79
2022-08-17T00:12:40.945Z,48.41
2022-08-17T00:15:05.225Z,48.84
2022-08-17T00:17:32.617Z,49.63
2022-08-17T00:20:00.781Z,48.52
2022-08-17T00:22:34.672Z,47.51
2022-08-17T00:25:09.803Z,46.91
2022-08-17T00:27:36.406Z,46.85
2022-08-17T00:30:05.389Z,45.95
2022-08-17T00:33:15.012Z,45.45
2022-08-17T00:35:25.382Z,45.23
2022-08-17T00:37:52.735Z,46.48
2022-08-17T00:40:20.419Z,46.19
2022-08-17T00:42:48.941Z,46.35
2022-08-17T00:45:17.863Z,47.41
2022-08-17T00:47:44.691Z,47.33
2022-08-17T00:50:15.316Z,49.38
2022-08-17T00:52:51.111Z,50.84
2022-08-17T00:55:20.026Z,51.95
2022-08-17T00:57:55.174Z,52.44
2022-08-17T01:00:27.777Z,51.77
2022-08-17T01:03:01.361Z,53.28
2022-08-17T01:05:32.854Z,53.25
2022-08-17T01:08:01.973Z,52.86
2022-08-17T01:10:57.555Z,52.83
2022-08-17T01:13:26.025Z,53.12
2022-08-17T01:15:57.655Z,52.79
2022-08-17T01:18:25.578Z,53.18
2022-08-17T01:20:55.430Z,52.44
2022-08-17T01:23:24.874Z,51.28
2022-08-17T01:25:57.755Z,52.58
2022-08-17T01:28:53.018Z,51.64
2022-08-17T01:31:15.163Z,52.45
2022-08-17T01:33:41.852Z,52.62
2022-08-17T01:36:08.631Z,52.30
2022-08-17T01:38:37.136Z,54.00
2022-08-17T01:41:09.165Z,53.68
2022-08-17T01:43:52.026Z,55.13
2022-08-17T01:46:27.290Z,53.20
2022-08-17T01:48:56.602Z,55.19
2022-08-17T01:51:25.528Z,55.86
2022-08-17T01:53:57.502Z,56.60
2022-08-17T01:56:28.489Z,58.11
2022-08-17T01:58:56.117Z,58.65
2022-08-17T02:01:27.032Z,59.25
2022-08-17T02:04:01.388Z,59.00
2022-08-17T02:06:52.568Z,59.46
2022-08-17T02:09:25.677Z,59.62
2022-08-17T02:11:57.514Z,58.16
2022-08-17T02:14:25.121Z,56.57
2022-08-17T02:16:52.454Z,56.26
2022-08-17T02:19:19.160Z,56.08
2022-08-17T02:21:48.508Z,54.57
2022-08-17T02:25:01.189Z,54.43
2022-08-17T02:27:18.826Z,54.91
2022-08-17T02:29:45.464Z,55.19
2022-08-17T02:32:28.532Z,55.29
2022-08-17T02:34:57.529Z,55.42
2022-08-17T02:37:25.428Z,57.35
2022-08-17T02:39:52.576Z,58.21
2022-08-17T02:42:27.393Z,57.99
2022-08-17T02:44:54.013Z,62.56
2022-08-17T02:47:20.661Z,69.46
2022-08-17T02:49:55.520Z,69.21
2022-08-17T02:52:42.753Z,71.86
2022-08-17T02:55:19.344Z,72.58
2022-08-17T02:57:46.976Z,73.34
2022-08-17T03:00:21.629Z,71.67
2022-08-17T03:02:49.149Z,72.67
2022-08-17T03:05:19.496Z,73.35
2022-08-17T03:07:46.238Z,74.11
2022-08-17T03:10:14.393Z,71.87
2022-08-17T03:12:42.449Z,71.73
2022-08-17T03:15:14.500Z,72.42
2022-08-17T03:17:41.333Z,72.24
2022-08-17T03:20:08.880Z,72.32
2022-08-17T03:22:38.510Z,72.20
2022-08-17T03:25:10.618Z,71.88
2022-08-17T03:27:38.456Z,71.98
2022-08-17T03:30:11.697Z,71.78
2022-08-17T03:32:41.886Z,73.10
2022-08-17T03:35:11.194Z,72.11
2022-08-17T03:37:39.564Z,72.08
2022-08-17T03:40:08.266Z,72.10
2022-08-17T03:42:37.447Z,72.49
2022-08-17T03:45:06.606Z,72.08
2022-08-17T03:47:33.296Z,71.26
2022-08-17T03:50:00.314Z,72.03
2022-08-17T03:52:26.918Z,71.49
2022-08-17T03:54:53.762Z,71.08
2022-08-17T03:57:20.566Z,70.95
2022-08-17T03:59:47.728Z,70.21
2022-08-17T04:02:22.923Z,70.90
2022-08-17T04:04:50.422Z,71.15
2022-08-17T04:07:19.244Z,71.14
2022-08-17T04:09:46.075Z,70.80
2022-08-17T04:12:15.892Z,70.08
2022-08-17T04:14:51.911Z,69.31
2022-08-17T04:17:22.560Z,68.18
2022-08-17T04:19:49.213Z,67.73
2022-08-17T04:22:32.978Z,68.67
2022-08-17T04:25:17.862Z,67.23
2022-08-17T04:27:44.477Z,68.10
2022-08-17T04:30:12.240Z,68.86
2022-08-17T04:33:00.689Z,68.94
2022-08-17T04:35:40.987Z,67.99
2022-08-17T04:38:10.763Z,67.03
2022-08-17T04:40:38.118Z,68.29
2022-08-17T04:43:09.475Z,68.65
2022-08-17T04:45:51.219Z,67.91
2022-08-17T04:48:35.499Z,68.34
2022-08-17T04:51:11.537Z,68.35
2022-08-17T04:53:40.942Z,66.33
2022-08-17T04:56:11.871Z,66.15
2022-08-17T04:58:46.769Z,64.73
2022-08-17T05:01:14.154Z,65.39
2022-08-17T05:03:41.535Z,64.40
2022-08-17T05:06:08.731Z,63.10
2022-08-17T05:08:35.719Z,63.42
2022-08-17T05:11:02.420Z,62.05
2022-08-17T05:13:29.305Z,61.77
2022-08-17T05:16:01.035Z,60.71
2022-08-17T05:18:29.129Z,62.93
2022-08-17T05:20:56.388Z,60.87
2022-08-17T05:23:25.703Z,59.22
2022-08-17T05:25:55.888Z,60.99
2022-08-17T05:28:27.590Z,59.56
2022-08-17T05:31:00.678Z,58.08
2022-08-17T05:33:32.376Z,58.37
2022-08-17T05:36:01.174Z,57.95
2022-08-17T05:38:29.871Z,57.83
2022-08-17T05:40:58.260Z,60.96
2022-08-17T05:43:28.359Z,65.45
2022-08-17T05:46:13.227Z,62.78
2022-08-17T05:48:47.348Z,61.42
2022-08-17T05:51:57.322Z,58.76
2022-08-17T05:55:14.376Z,59.58
2022-08-17T05:57:54.122Z,58.93
2022-08-17T06:00:42.975Z,58.93
2022-08-17T06:03:38.641Z,58.06
2022-08-17T06:06:25.225Z,58.45
2022-08-17T06:09:09.875Z,59.15
2022-08-17T06:11:53.549Z,57.43
2022-08-17T06:14:39.018Z,56.94
2022-08-17T06:17:14.676Z,56.07
2022-08-17T06:19:59.779Z,55.34
2022-08-17T06:22:36.461Z,53.90
2022-08-17T06:25:14.455Z,54.50
2022-08-17T06:27:53.907Z,52.63
2022-08-17T06:30:28.147Z,52.55
2022-08-17T06:33:03.342Z,52.21
2022-08-17T06:35:44.347Z,51.59
2022-08-17T06:38:37.178Z,50.70
2022-08-17T06:41:10.777Z,49.00
2022-08-17T06:44:03.683Z,48.78
2022-08-17T06:46:43.856Z,48.57
2022-08-17T06:49:40.799Z,50.03
2022-08-17T06:52:42.120Z,50.00
2022-08-17T06:55:20.578Z,48.50
2022-08-17T06:58:05.815Z,47.81
2022-08-17T07:00:46.662Z,48.10
2022-08-17T07:03:25.519Z,47.53
2022-08-17T07:05:54.622Z,48.11
2022-08-17T07:08:47.058Z,47.15
2022-08-17T07:11:25.606Z,49.21
2022-08-17T07:13:57.933Z,48.57
2022-08-17T07:16:28.826Z,48.73
2022-08-17T07:18:57.928Z,47.76
2022-08-17T07:22:17.095Z,46.20
2022-08-17T07:24:57.179Z,43.85
2022-08-17T07:27:39.038Z,41.76
2022-08-17T07:30:10.800Z,42.61
2022-08-17T07:32:42.683Z,43.08
2022-08-17T07:35:15.190Z,43.94
2022-08-17T07:38:06.101Z,44.75
2022-08-17T07:40:55.323Z,44.76
2022-08-17T07:43:25.950Z,43.32
2022-08-17T07:46:02.516Z,43.83
2022-08-17T07:48:29.219Z,45.02
2022-08-17T07:50:55.910Z,44.78
2022-08-17T07:53:25.844Z,45.55
2022-08-17T07:55:53.859Z,44.90
2022-08-17T07:58:23.368Z,42.39
2022-08-17T08:01:22.559Z,43.85
2022-08-17T08:03:52.631Z,45.44
2022-08-17T08:06:24.354Z,47.37
2022-08-17T08:08:55.154Z,48.04
2022-08-17T08:11:34.961Z,48.27
2022-08-17T08:14:28.672Z,47.85
2022-08-17T08:17:22.359Z,46.71
2022-08-17T08:19:49.250Z,46.75
2022-08-17T08:22:29.984Z,46.45
2022-08-17T08:24:59.438Z,46.70
2022-08-17T08:27:49.548Z,46.49
2022-08-17T08:30:20.301Z,46.38
2022-08-17T08:32:52.938Z,46.17
2022-08-17T08:35:31.327Z,43.81
2022-08-17T08:38:34.198Z,42.20
2022-08-17T08:41:33.225Z,41.59
2022-08-17T08:44:59.958Z,42.59
2022-08-17T08:47:35.616Z,42.76
2022-08-17T08:50:37.506Z,44.14
2022-08-17T08:53:10.120Z,44.98
2022-08-17T08:55:50.942Z,42.68
2022-08-17T08:58:32.023Z,43.34
2022-08-17T09:01:25.543Z,42.13
2022-08-17T09:04:25.710Z,41.62
2022-08-17T09:07:01.445Z,42.34
2022-08-17T09:09:58.699Z,41.05
2022-08-17T09:12:50.593Z,40.41
2022-08-17T09:15:27.763Z,40.84
2022-08-17T09:18:58.830Z,41.24
2022-08-17T09:21:01.235Z,41.21
2022-08-17T09:23:46.381Z,41.92
2022-08-17T09:26:17.872Z,40.73
2022-08-17T09:28:52.168Z,41.71
2022-08-17T09:31:33.401Z,42.75
2022-08-17T09:34:07.878Z,44.50
2022-08-17T09:36:44.603Z,44.49
2022-08-17T09:39:24.304Z,44.15
2022-08-17T09:42:01.483Z,43.63
2022-08-17T09:44:37.885Z,45.33
2022-08-17T09:47:10.454Z,44.79
2022-08-17T09:50:10.516Z,45.12
2022-08-17T09:52:37.606Z,46.37
2022-08-17T09:55:05.608Z,47.30
2022-08-17T09:57:45.636Z,45.28
2022-08-17T10:00:19.537Z,44.72
2022-08-17T10:03:16.900Z,44.73
2022-08-17T10:06:01.690Z,45.33
2022-08-17T10:08:49.339Z,44.19
2022-08-17T10:11:33.578Z,44.63
2022-08-17T10:14:38.094Z,43.37
2022-08-17T10:17:33.928Z,42.68
2022-08-17T10:20:03.207Z,43.13
2022-08-17T10:22:41.730Z,43.08
2022-08-17T10:25:23.459Z,42.61
2022-08-17T10:28:04.480Z,42.77
2022-08-17T10:30:43.659Z,42.44
2022-08-17T10:33:24.114Z,43.18
2022-08-17T10:36:23.250Z,43.06
2022-08-17T10:39:07.398Z,42.59
2022-08-17T10:41:43.820Z,43.28
2022-08-17T10:44:40.424Z,43.34
2022-08-17T10:47:15.081Z,42.57
2022-08-17T10:49:48.177Z,41.49
2022-08-17T10:52:20.960Z,40.77
2022-08-17T10:54:56.694Z,41.37
2022-08-17T10:57:31.222Z,42.18
2022-08-17T11:00:00.548Z,41.79
2022-08-17T11:02:59.532Z,41.36
2022-08-17T11:05:33.273Z,40.70
2022-08-17T11:08:24.866Z,40.02
2022-08-17T11:11:10.839Z,40.60
2022-08-17T11:14:06.427Z,40.41
2022-08-17T11:16:49.834Z,40.09
2022-08-17T11:20:10.881Z,40.03
2022-08-17T11:22:58.455Z,40.42
2022-08-17T11:25:53.184Z,40.20
2022-08-17T11:28:29.014Z,40.20
2022-08-17T11:31:08.313Z,41.13
2022-08-17T11:33:36.826Z,40.56
2022-08-17T11:36:16.677Z,40.91
2022-08-17T11:38:51.321Z,40.75
2022-08-17T11:41:47.173Z,39.89
2022-08-17T11:44:36.103Z,40.61
2022-08-17T11:47:20.700Z,39.55
2022-08-17T11:50:16.011Z,39.47
2022-08-17T11:52:49.925Z,39.81
2022-08-17T11:55:38.458Z,39.39
2022-08-17T11:58:17.949Z,33.73
2022-08-17T12:00:47.373Z,33.50
2022-08-17T12:03:22.997Z,33.77
2022-08-17T12:06:00.131Z,34.41
2022-08-17T12:08:28.259Z,34.48
2022-08-17T12:11:03.317Z,35.63
2022-08-17T12:13:39.527Z,34.07
2022-08-17T12:16:07.384Z,36.43
2022-08-17T12:18:37.038Z,36.70
2022-08-17T12:21:12.968Z,34.68
2022-08-17T12:23:48.941Z,36.43
2022-08-17T12:26:23.218Z,38.72
2022-08-17T12:28:59.753Z,37.52
2022-08-17T12:31:41.935Z,35.89
2022-08-17T12:34:17.006Z,36.30
2022-08-17T12:36:43.904Z,37.88
2022-08-17T12:39:13.985Z,37.95
2022-08-17T12:41:48.072Z,39.72
2022-08-17T12:44:30.500Z,38.43
2022-08-17T12:47:04.854Z,37.97
2022-08-17T12:49:37.965Z,37.02
2022-08-17T12:52:04.653Z,37.00
2022-08-17T12:54:51.871Z,36.24
2022-08-17T12:57:38.720Z,35.99
2022-08-17T13:00:17.297Z,35.69
2022-08-17T13:02:51.241Z,36.12
2022-08-17T13:05:38.361Z,35.63
2022-08-17T13:08:16.245Z,35.39
2022-08-17T13:10:43.789Z,36.17
2022-08-17T13:13:38.415Z,36.09
2022-08-17T13:16:19.044Z,37.66
2022-08-17T13:18:48.428Z,37.77
2022-08-17T13:21:20.829Z,36.08
2022-08-17T13:24:04.569Z,35.81
2022-08-17T13:26:40.429Z,35.18
2022-08-17T13:29:18.705Z,35.21
2022-08-17T13:31:52.682Z,34.47
2022-08-17T13:34:27.198Z,33.82
2022-08-17T13:37:24.652Z,34.82
2022-08-17T13:39:55.160Z,33.72
2022-08-17T13:42:53.369Z,34.57
2022-08-17T13:45:36.125Z,33.75
2022-08-17T13:48:25.394Z,34.17
2022-08-17T13:50:51.977Z,33.64
2022-08-17T13:53:36.873Z,33.75
2022-08-17T13:56:06.282Z,33.14
2022-08-17T13:59:06.227Z,32.40
2022-08-17T14:01:34.715Z,32.42
2022-08-17T14:04:17.679Z,31.78
2022-08-17T14:07:08.795Z,31.90
2022-08-17T14:09:39.845Z,31.77
2022-08-17T14:12:13.251Z,32.67
2022-08-17T14:14:40.449Z,32.37
2022-08-17T14:17:07.088Z,32.57
2022-08-17T14:19:35.121Z,33.14
2022-08-17T14:22:02.536Z,33.06
2022-08-17T14:24:33.048Z,35.26
2022-08-17T14:27:01.907Z,35.99
2022-08-17T14:29:31.079Z,35.24
2022-08-17T14:32:01.338Z,36.57
2022-08-17T14:34:27.942Z,35.55
2022-08-17T14:36:54.663Z,36.41
2022-08-17T14:39:21.333Z,37.22
2022-08-17T14:41:48.382Z,37.46
2022-08-17T14:44:15.849Z,37.54
2022-08-17T14:46:44.832Z,37.11
2022-08-17T14:49:14.264Z,37.67
2022-08-17T14:51:43.928Z,37.16
2022-08-17T14:54:33.168Z,36.75
2022-08-17T14:57:24.777Z,37.00
2022-08-17T14:59:55.144Z,37.23
2022-08-17T15:02:29.456Z,36.56
2022-08-17T15:05:05.861Z,35.44
2022-08-17T15:07:32.587Z,36.49
2022-08-17T15:10:00.708Z,36.17
2022-08-17T15:12:32.330Z,36.14
2022-08-17T15:15:01.599Z,36.51
2022-08-17T15:17:45.277Z,35.80
2022-08-17T15:20:25.504Z,35.63
2022-08-17T15:22:52.592Z,35.09
2022-08-17T15:25:19.410Z,34.92
2022-08-17T15:27:46.325Z,35.07
2022-08-17T15:30:13.283Z,35.86
2022-08-17T15:32:50.825Z,35.55
2022-08-17T15:35:28.147Z,35.56
2022-08-17T15:38:07.920Z,36.48
2022-08-17T15:40:40.011Z,36.00
2022-08-17T15:43:08.517Z,37.01
2022-08-17T15:45:35.136Z,37.38
2022-08-17T15:48:01.995Z,37.14
2022-08-17T15:50:28.685Z,37.59
2022-08-17T15:53:01.765Z,37.91
2022-08-17T15:55:30.886Z,38.51
2022-08-17T15:57:57.667Z,39.48
2022-08-17T16:00:24.452Z,41.57
2022-08-17T16:03:13.587Z,42.84
2022-08-17T16:05:38.464Z,43.39
2022-08-17T16:08:07.959Z,44.10
2022-08-17T16:10:35.665Z,44.89
2022-08-17T16:13:04.613Z,45.97
2022-08-17T16:15:31.714Z,47.17
2022-08-17T16:17:58.875Z,50.22
2022-08-17T16:23:29.662Z,59.78
2022-08-17T16:26:00.846Z,65.94
2022-08-17T16:28:35.904Z,67.53
2022-08-17T16:31:08.218Z,71.26
2022-08-17T16:33:37.890Z,72.39
2022-08-17T16:36:05.605Z,70.34
2022-08-17T16:38:32.569Z,73.09
2022-08-17T16:40:59.223Z,74.14
2022-08-17T16:43:26.016Z,72.94
2022-08-17T16:45:52.940Z,73.55
2022-08-17T16:48:19.753Z,72.11
2022-08-17T16:51:03.175Z,72.33
2022-08-17T16:53:31.723Z,72.90
2022-08-17T16:55:58.439Z,74.31
2022-08-17T16:58:25.071Z,71.76
2022-08-17T17:00:51.741Z,75.75
2022-08-17T17:03:23.679Z,76.12
2022-08-17T17:06:08.055Z,77.35
2022-08-17T17:08:47.948Z,79.45
2022-08-17T17:11:23.457Z,80.38
2022-08-17T17:13:57.498Z,81.97
2022-08-17T17:16:50.330Z,81.66
2022-08-17T17:19:44.212Z,81.43
2022-08-17T17:22:28.558Z,80.83
2022-08-17T17:25:14.053Z,78.25
2022-08-17T17:27:56.422Z,77.43
2022-08-17T17:30:29.038Z,77.48
2022-08-17T17:33:04.826Z,77.28
2022-08-17T17:35:50.185Z,76.52
2022-08-17T17:38:23.941Z,74.62
2022-08-17T17:41:02.989Z,75.19
2022-08-17T17:43:40.342Z,72.47
2022-08-17T17:46:27.241Z,72.97
2022-08-17T17:48:59.715Z,71.12
2022-08-17T17:52:09.643Z,71.12
2022-08-17T17:54:50.174Z,70.57
2022-08-17T17:57:33.485Z,69.58
2022-08-17T18:00:12.333Z,71.68
2022-08-17T18:03:19.425Z,72.15
2022-08-17T18:05:58.243Z,71.28
2022-08-17T18:08:52.233Z,71.22
2022-08-17T18:11:25.016Z,71.50
2022-08-17T18:14:03.864Z,69.40
2022-08-17T18:16:32.179Z,68.76
2022-08-17T18:19:00.128Z,70.05
2022-08-17T18:21:37.997Z,69.87
2022-08-17T18:24:08.938Z,70.29
2022-08-17T18:26:45.924Z,68.33
2022-08-17T18:29:25.861Z,69.59
2022-08-17T18:32:36.808Z,68.43
2022-08-17T18:35:26.574Z,70.59
2022-08-17T18:38:27.389Z,70.41
2022-08-17T18:41:18.452Z,69.58
2022-08-17T18:44:00.572Z,67.19
2022-08-17T18:46:30.203Z,68.53
2022-08-17T18:49:23.893Z,68.15
2022-08-17T18:52:11.012Z,69.43
2022-08-17T18:54:38.284Z,71.27
2022-08-17T18:57:07.325Z,72.11
2022-08-17T18:59:44.326Z,72.85
2022-08-17T19:02:22.092Z,71.89
2022-08-17T19:05:14.290Z,72.28
2022-08-17T19:07:44.966Z,71.94
2022-08-17T19:10:17.669Z,71.06
2022-08-17T19:12:52.817Z,72.09
2022-08-17T19:15:45.502Z,72.06
2022-08-17T19:18:38.566Z,74.21
2022-08-17T19:21:20.274Z,73.41
2022-08-17T19:24:00.505Z,71.11
2022-08-17T19:26:53.354Z,72.10
2022-08-17T19:30:08.117Z,72.58
2022-08-17T19:32:37.223Z,71.52
2022-08-17T19:35:10.489Z,71.63
2022-08-17T19:37:52.929Z,70.23
2022-08-17T19:40:51.043Z,69.42
2022-08-17T19:43:30.385Z,69.61
2022-08-17T19:46:23.794Z,68.93
2022-08-17T19:48:56.933Z,69.07
2022-08-17T19:51:39.901Z,67.25
2022-08-17T19:54:21.941Z,69.07
2022-08-17T19:57:06.713Z,67.50
2022-08-17T19:59:55.003Z,68.88
2022-08-17T20:02:37.233Z,68.24
2022-08-17T20:06:10.998Z,68.57
2022-08-17T20:08:39.846Z,69.57
2022-08-17T20:11:16.370Z,74.60
2022-08-17T20:13:49.833Z,75.59
2022-08-17T20:16:20.122Z,76.13
2022-08-17T20:19:11.338Z,75.39
2022-08-17T20:22:08.979Z,74.84
2022-08-17T20:24:48.218Z,72.36
2022-08-17T20:27:20.797Z,71.95
2022-08-17T20:30:13.156Z,71.82
2022-08-17T20:32:53.135Z,70.17
2022-08-17T20:35:22.766Z,69.35
2022-08-17T20:38:06.372Z,66.46
2022-08-17T20:40:38.302Z,67.20
2022-08-17T20:43:29.961Z,69.86
2022-08-17T20:46:36.694Z,71.81
2022-08-17T20:49:25.802Z,72.38
2022-08-17T20:52:08.219Z,73.07
2022-08-17T20:54:43.538Z,72.15
2022-08-17T20:57:32.937Z,74.93
2022-08-17T21:00:30.273Z,76.27
2022-08-17T21:03:20.543Z,74.74
2022-08-17T21:06:01.347Z,73.63
2022-08-17T21:08:51.138Z,71.64
2022-08-17T21:12:02.735Z,69.23
2022-08-17T21:15:03.229Z,69.49
2022-08-17T21:18:12.185Z,66.72
2022-08-17T21:21:03.404Z,65.98
2022-08-17T21:23:32.724Z,66.71
2022-08-17T21:26:05.264Z,67.09
2022-08-17T21:29:29.490Z,68.36
2022-08-17T21:32:03.279Z,71.77
2022-08-17T21:34:32.389Z,74.87
2022-08-17T21:37:20.669Z,75.40
2022-08-17T21:40:10.067Z,76.93
2022-08-17T21:42:51.873Z,76.71
2022-08-17T21:45:35.022Z,74.06
2022-08-17T21:48:19.459Z,72.73
2022-08-17T21:50:59.292Z,75.21
2022-08-17T21:53:36.315Z,74.38
2022-08-17T21:56:03.474Z,75.25
2022-08-17T21:58:33.168Z,76.56
2022-08-17T22:01:19.113Z,76.82
2022-08-17T22:03:54.171Z,75.66
2022-08-17T22:06:25.105Z,72.58
2022-08-17T22:09:01.338Z,69.73
2022-08-17T22:11:28.232Z,71.33
2022-08-17T22:14:00.601Z,70.75
2022-08-17T22:16:33.013Z,68.06
2022-08-17T22:18:59.790Z,68.89
2022-08-17T22:21:27.403Z,68.64
2022-08-17T22:24:15.523Z,70.39
2022-08-17T22:27:06.226Z,72.96
2022-08-17T22:29:47.953Z,74.56
2022-08-17T22:32:37.537Z,75.20
2022-08-17T22:35:31.554Z,76.26
2022-08-17T22:38:19.927Z,76.66
2022-08-17T22:40:47.780Z,78.82
2022-08-17T22:43:14.567Z,77.99
2022-08-17T22:45:53.019Z,78.92
2022-08-17T22:48:26.722Z,79.24
2022-08-17T22:51:12.900Z,81.02
2022-08-17T22:53:53.756Z,80.57
2022-08-17T22:56:24.911Z,80.95
2022-08-17T22:58:58.785Z,80.31
2022-08-17T23:01:32.728Z,81.79
2022-08-17T23:04:03.191Z,81.09
2022-08-17T23:06:31.748Z,81.26
2022-08-17T23:08:58.374Z,81.91
2022-08-17T23:11:36.844Z,80.49
2022-08-17T23:14:16.097Z,78.42
2022-08-17T23:16:43.007Z,79.35
2022-08-17T23:19:11.506Z,77.24
2022-08-17T23:21:38.580Z,76.97
2022-08-17T23:24:06.420Z,76.99
2022-08-17T23:26:35.722Z,76.03
2022-08-17T23:29:02.391Z,73.93
2022-08-17T23:31:30.178Z,72.82
2022-08-17T23:33:56.852Z,70.70
2022-08-17T23:36:23.459Z,71.97
2022-08-17T23:38:50.077Z,69.21
2022-08-17T23:41:20.193Z,70.34
2022-08-17T23:43:50.934Z,72.25
2022-08-17T23:46:18.407Z,72.39
2022-08-17T23:48:45.071Z,69.30
2022-08-17T23:51:17.318Z,68.99
2022-08-17T23:53:47.990Z,68.63
2022-08-17T23:56:15.246Z,68.94
2022-08-17T23:58:43.662Z,69.24
